createdAt,value
2023-04-26T00:02:22.860Z,18.00
2023-04-26T00:04:58.186Z,23.33
2023-04-26T00:08:05.856Z,21.73
2023-04-26T00:10:47.410Z,25.33
2023-04-26T00:13:14.630Z,19.25
2023-04-26T00:15:42.077Z,21.80
2023-04-26T00:18:11.651Z,22.20
2023-04-26T00:20:39.665Z,21.92
2023-04-26T00:23:10.247Z,18.15
2023-04-26T00:25:46.969Z,23.90
2023-04-26T00:28:19.061Z,19.08
2023-04-26T00:30:49.184Z,25.85
2023-04-26T00:33:16.191Z,21.80
2023-04-26T00:35:43.555Z,22.10
2023-04-26T00:38:10.956Z,20.45
2023-04-26T00:40:38.410Z,21.02
2023-04-26T00:43:06.981Z,25.90
2023-04-26T00:45:34.998Z,23.98
2023-04-26T00:48:03.662Z,25.15
2023-04-26T00:52:59.976Z,21.08
2023-04-26T00:55:27.647Z,31.30
2023-04-26T00:57:55.513Z,20.92
2023-04-26T01:00:23.007Z,17.67
2023-04-26T01:02:50.304Z,19.63
2023-04-26T01:05:21.846Z,28.27
2023-04-26T01:07:49.236Z,20.85
2023-04-26T01:10:18.385Z,22.35
2023-04-26T01:12:45.870Z,22.98
2023-04-26T01:15:13.539Z,30.77
2023-04-26T01:17:40.633Z,27.95
2023-04-26T01:20:10.654Z,21.48
2023-04-26T01:22:37.757Z,25.15
2023-04-26T01:25:12.309Z,25.63
2023-04-26T01:27:39.991Z,21.98
2023-04-26T01:30:08.577Z,25.77
2023-04-26T01:32:35.906Z,26.20
2023-04-26T01:35:03.646Z,19.33
2023-04-26T01:37:31.764Z,22.92
2023-04-26T01:39:59.942Z,28.63
2023-04-26T01:42:28.331Z,27.85
2023-04-26T01:45:00.466Z,29.00
2023-04-26T01:47:28.066Z,19.25
2023-04-26T01:49:55.677Z,22.70
2023-04-26T01:52:23.311Z,26.63
2023-04-26T01:54:51.460Z,22.48
2023-04-26T01:57:18.427Z,25.27
2023-04-26T01:59:45.866Z,24.48
2023-04-26T02:02:16.921Z,20.38
2023-04-26T02:04:44.636Z,31.25
2023-04-26T02:07:11.717Z,32.22
2023-04-26T02:09:39.154Z,20.58
2023-04-26T02:12:06.301Z,22.33
2023-04-26T02:14:35.282Z,22.05
2023-04-26T02:17:02.345Z,21.33
2023-04-26T02:19:29.873Z,15.55
2023-04-26T02:21:58.525Z,20.02
2023-04-26T02:24:26.356Z,25.85
2023-04-26T02:26:54.925Z,15.10
2023-04-26T02:29:32.634Z,17.88
2023-04-26T02:32:07.906Z,20.30
2023-04-26T02:34:36.036Z,27.88
2023-04-26T02:37:03.056Z,28.02
2023-04-26T02:39:32.399Z,21.52
2023-04-26T02:41:59.700Z,14.50
2023-04-26T02:44:30.990Z,19.10
2023-04-26T02:46:58.402Z,20.65
2023-04-26T02:49:26.070Z,18.77
2023-04-26T02:51:53.103Z,22.90
2023-04-26T02:54:20.516Z,23.05
2023-04-26T02:56:47.617Z,21.73
2023-04-26T02:59:15.686Z,24.67
2023-04-26T03:01:43.310Z,17.45
2023-04-26T03:06:38.892Z,20.40
2023-04-26T03:09:06.277Z,24.98
2023-04-26T03:11:33.427Z,27.75
2023-04-26T03:14:00.765Z,23.73
2023-04-26T03:16:28.499Z,25.42
2023-04-26T03:18:56.041Z,29.48
2023-04-26T03:21:23.132Z,21.63
2023-04-26T03:23:53.913Z,29.20
2023-04-26T03:26:23.018Z,24.08
2023-04-26T03:28:52.977Z,28.00
2023-04-26T03:31:22.064Z,26.75
2023-04-26T03:33:50.255Z,22.73
2023-04-26T03:36:17.487Z,26.30
2023-04-26T03:38:44.858Z,28.35
2023-04-26T03:41:13.065Z,28.17
2023-04-26T03:43:41.311Z,30.40
2023-04-26T03:46:08.349Z,26.73
2023-04-26T03:48:36.343Z,28.95
2023-04-26T03:51:04.261Z,25.75
2023-04-26T03:53:33.901Z,23.40
2023-04-26T04:00:00.134Z,23.30
2023-04-26T04:05:35.059Z,28.48
2023-04-26T04:08:04.941Z,26.83
2023-04-26T04:10:32.027Z,29.75
2023-04-26T04:12:59.470Z,23.50
2023-04-26T04:15:27.148Z,24.77
2023-04-26T04:17:55.168Z,29.27
2023-04-26T04:20:23.815Z,28.38
2023-04-26T04:22:52.975Z,25.23
2023-04-26T04:25:31.143Z,21.45
2023-04-26T04:28:05.861Z,27.83
2023-04-26T04:30:33.495Z,25.80
2023-04-26T04:33:06.886Z,34.03
2023-04-26T04:35:37.295Z,30.17
2023-04-26T04:38:14.140Z,29.23
2023-04-26T04:40:41.946Z,28.73
2023-04-26T04:43:11.042Z,25.75
2023-04-26T04:45:39.065Z,27.83
2023-04-26T04:48:10.599Z,23.60
2023-04-26T04:50:46.370Z,28.35
2023-04-26T04:53:18.588Z,24.95
2023-04-26T04:55:49.152Z,27.98
2023-04-26T04:58:20.386Z,33.40
2023-04-26T05:00:50.821Z,26.30
2023-04-26T05:03:18.980Z,28.90
2023-04-26T05:05:46.174Z,35.75
2023-04-26T05:08:14.927Z,31.00
2023-04-26T05:10:42.140Z,30.02
2023-04-26T05:13:09.492Z,31.98
2023-04-26T05:15:37.578Z,33.15
2023-04-26T05:18:07.614Z,29.90
2023-04-26T05:20:36.146Z,34.90
2023-04-26T05:23:12.229Z,31.73
2023-04-26T05:28:16.132Z,22.88
2023-04-26T05:30:43.601Z,20.42
2023-04-26T05:33:11.154Z,27.40
2023-04-26T05:35:50.681Z,29.00
2023-04-26T05:38:19.148Z,36.78
2023-04-26T05:40:48.387Z,21.30
2023-04-26T05:43:16.069Z,23.13
2023-04-26T05:45:55.645Z,26.73
2023-04-26T05:48:27.818Z,25.10
2023-04-26T05:50:55.668Z,17.13
2023-04-26T05:53:23.054Z,25.77
2023-04-26T05:55:50.218Z,28.08
2023-04-26T05:58:17.795Z,27.05
2023-04-26T06:00:46.276Z,23.27
2023-04-26T06:03:13.935Z,24.42
2023-04-26T06:05:42.597Z,26.00
2023-04-26T06:08:10.122Z,26.85
2023-04-26T06:10:40.793Z,23.85
2023-04-26T06:13:14.077Z,25.17
2023-04-26T06:15:42.089Z,28.10
2023-04-26T06:18:10.293Z,25.85
2023-04-26T06:20:43.467Z,24.58
2023-04-26T06:23:14.794Z,24.92
2023-04-26T06:25:46.635Z,31.13
2023-04-26T06:28:14.738Z,26.42
2023-04-26T06:30:45.984Z,25.40
2023-04-26T06:33:14.887Z,27.70
2023-04-26T06:35:43.279Z,26.73
2023-04-26T06:38:13.242Z,22.65
2023-04-26T06:40:40.442Z,21.98
2023-04-26T06:43:09.827Z,21.65
2023-04-26T06:45:37.121Z,23.88
2023-04-26T06:48:05.429Z,21.13
2023-04-26T06:50:32.621Z,22.25
2023-04-26T06:53:00.046Z,22.23
2023-04-26T06:55:27.186Z,17.85
2023-04-26T06:57:54.545Z,18.02
2023-04-26T07:00:22.222Z,16.58
2023-04-26T07:02:49.793Z,15.10
2023-04-26T07:05:17.578Z,18.10
2023-04-26T07:07:45.237Z,18.05
2023-04-26T07:10:18.392Z,14.20
2023-04-26T07:12:46.060Z,12.13
2023-04-26T07:15:13.044Z,10.70
2023-04-26T07:17:40.442Z,13.15
2023-04-26T07:20:08.376Z,11.80
2023-04-26T07:22:36.023Z,11.38
2023-04-26T07:25:03.186Z,12.20
2023-04-26T07:27:31.554Z,14.15
2023-04-26T07:29:58.503Z,11.05
2023-04-26T07:32:26.267Z,14.05
2023-04-26T07:34:53.720Z,13.30
2023-04-26T07:37:21.289Z,11.77
2023-04-26T07:39:48.446Z,15.73
2023-04-26T07:42:16.616Z,16.63
2023-04-26T07:44:43.687Z,13.35
2023-04-26T07:47:14.528Z,13.98
2023-04-26T07:49:41.854Z,13.38
2023-04-26T07:52:09.759Z,12.35
2023-04-26T07:54:37.230Z,12.27
2023-04-26T07:57:04.711Z,10.75
2023-04-26T07:59:32.676Z,22.70
2023-04-26T08:02:00.170Z,12.98
2023-04-26T08:04:35.273Z,10.07
2023-04-26T08:07:03.123Z,7.72
2023-04-26T08:09:30.946Z,8.32
2023-04-26T08:11:58.740Z,8.85
2023-04-26T08:14:26.045Z,13.88
2023-04-26T08:16:53.753Z,8.02
2023-04-26T08:19:21.595Z,8.77
2023-04-26T08:21:49.089Z,9.38
2023-04-26T08:24:16.139Z,6.10
2023-04-26T08:26:43.578Z,7.90
2023-04-26T08:29:10.763Z,9.05
2023-04-26T08:31:38.482Z,8.10
2023-04-26T08:34:06.090Z,9.63
2023-04-26T08:36:37.152Z,6.43
2023-04-26T08:39:05.043Z,7.85
2023-04-26T08:41:37.452Z,9.52
2023-04-26T08:44:05.763Z,9.88
2023-04-26T08:49:47.783Z,11.10
2023-04-26T08:52:17.336Z,9.82
2023-04-26T08:54:46.970Z,13.55
2023-04-26T08:57:15.624Z,6.65
2023-04-26T08:59:44.366Z,10.43
2023-04-26T09:02:17.426Z,5.15
2023-04-26T09:04:48.534Z,4.82
2023-04-26T09:07:35.895Z,6.38
2023-04-26T09:10:04.794Z,5.78
2023-04-26T09:12:32.633Z,6.65
2023-04-26T09:15:01.416Z,4.32
2023-04-26T09:17:34.492Z,4.95
2023-04-26T09:20:07.945Z,4.95
2023-04-26T09:22:37.503Z,5.63
2023-04-26T09:25:07.270Z,4.55
2023-04-26T09:27:38.127Z,6.47
2023-04-26T09:30:11.721Z,5.93
2023-04-26T09:32:53.839Z,5.28
2023-04-26T09:35:35.341Z,7.07
2023-04-26T09:38:11.046Z,6.40
2023-04-26T09:40:43.547Z,10.02
2023-04-26T09:43:22.038Z,9.43
2023-04-26T09:45:57.010Z,10.52
2023-04-26T09:48:30.566Z,12.50
2023-04-26T09:51:03.685Z,9.23
2023-04-26T09:53:32.395Z,10.75
2023-04-26T09:56:19.889Z,9.73
2023-04-26T09:58:47.253Z,9.80
2023-04-26T10:01:19.191Z,9.68
2023-04-26T10:03:47.497Z,10.02
2023-04-26T10:06:15.653Z,11.35
2023-04-26T10:08:43.888Z,10.25
2023-04-26T10:11:11.831Z,10.27
2023-04-26T10:13:42.264Z,12.27
2023-04-26T10:16:12.690Z,9.07
2023-04-26T10:18:40.686Z,8.77
2023-04-26T10:21:11.385Z,9.80
2023-04-26T10:23:39.881Z,11.35
2023-04-26T10:26:07.749Z,15.85
2023-04-26T10:28:41.834Z,15.63
2023-04-26T10:31:09.040Z,13.77
2023-04-26T10:33:36.556Z,13.30
2023-04-26T10:36:26.848Z,11.25
2023-04-26T10:39:23.403Z,10.88
2023-04-26T10:41:50.654Z,9.85
2023-04-26T10:44:57.659Z,13.50
2023-04-26T10:47:28.734Z,13.80
2023-04-26T10:50:05.821Z,11.98
2023-04-26T10:52:34.245Z,11.40
2023-04-26T10:57:56.043Z,8.73
2023-04-26T11:00:33.190Z,10.85
2023-04-26T11:03:04.127Z,10.70
2023-04-26T11:05:38.728Z,10.20
2023-04-26T11:08:19.955Z,10.85
2023-04-26T11:11:11.951Z,11.30
2023-04-26T11:13:40.776Z,12.20
2023-04-26T11:16:10.537Z,10.90
2023-04-26T11:18:40.498Z,9.73
2023-04-26T11:21:08.946Z,10.75
2023-04-26T11:23:36.771Z,11.30
2023-04-26T11:26:06.860Z,10.15
2023-04-26T11:28:36.144Z,11.75
2023-04-26T11:31:04.741Z,9.68
2023-04-26T11:33:34.442Z,9.55
2023-04-26T11:36:02.343Z,9.85
2023-04-26T11:38:30.193Z,8.77
2023-04-26T11:41:02.595Z,8.70
2023-04-26T11:43:40.089Z,12.15
2023-04-26T11:46:10.017Z,9.85
2023-04-26T11:51:34.912Z,9.30
2023-04-26T11:54:02.383Z,6.95
2023-04-26T11:56:29.483Z,7.50
2023-04-26T11:58:58.510Z,6.00
2023-04-26T12:01:27.951Z,7.00
2023-04-26T12:04:00.062Z,5.70
2023-04-26T12:06:44.157Z,5.60
2023-04-26T12:09:12.122Z,11.00
2023-04-26T12:11:40.374Z,6.63
2023-04-26T12:16:38.909Z,5.50
2023-04-26T12:19:07.355Z,3.90
2023-04-26T12:21:42.666Z,5.93
2023-04-26T12:24:36.969Z,4.45
2023-04-26T12:27:07.186Z,5.95
2023-04-26T12:29:35.084Z,4.20
2023-04-26T12:32:02.742Z,4.60
2023-04-26T12:34:40.057Z,2.95
2023-04-26T12:37:15.820Z,3.17
2023-04-26T12:42:57.174Z,3.65
2023-04-26T12:45:28.147Z,3.25
2023-04-26T12:47:56.483Z,4.28
2023-04-26T12:50:23.814Z,6.38
2023-04-26T12:52:51.369Z,6.35
2023-04-26T12:55:20.457Z,2.65
2023-04-26T12:57:48.128Z,2.38
2023-04-26T13:00:21.875Z,12.73
2023-04-26T13:02:49.625Z,7.60
2023-04-26T13:05:18.902Z,4.95
2023-04-26T13:07:46.407Z,4.05
2023-04-26T13:10:13.900Z,3.72
2023-04-26T13:12:41.577Z,4.22
2023-04-26T13:15:09.404Z,4.38
2023-04-26T13:17:38.105Z,2.58
2023-04-26T13:20:07.145Z,3.75
2023-04-26T13:22:34.961Z,2.58
2023-04-26T13:25:27.551Z,2.75
2023-04-26T13:27:55.624Z,7.38
2023-04-26T13:30:22.616Z,2.75
2023-04-26T13:32:50.275Z,3.22
2023-04-26T13:35:17.376Z,2.50
2023-04-26T13:37:44.863Z,1.42
2023-04-26T13:40:12.445Z,3.80
2023-04-26T13:42:40.123Z,3.38
2023-04-26T13:45:09.567Z,2.42
2023-04-26T13:47:37.530Z,6.95
2023-04-26T13:50:04.934Z,1.90
2023-04-26T13:55:15.625Z,5.60
2023-04-26T13:57:43.178Z,5.85
2023-04-26T14:02:54.721Z,3.22
2023-04-26T14:05:22.163Z,2.60
2023-04-26T14:07:49.787Z,24.60
2023-04-26T14:10:16.933Z,3.67
2023-04-26T14:12:44.523Z,5.80
2023-04-26T14:15:12.777Z,2.20
2023-04-26T14:17:40.121Z,5.00
2023-04-26T14:20:10.518Z,3.17
2023-04-26T14:22:38.171Z,4.15
2023-04-26T14:25:06.029Z,3.17
2023-04-26T14:27:34.810Z,1.90
2023-04-26T14:30:01.903Z,2.42
2023-04-26T14:32:29.304Z,4.15
2023-04-26T14:34:56.414Z,1.67
2023-04-26T14:37:24.186Z,4.10
2023-04-26T14:39:53.985Z,2.83
2023-04-26T14:42:24.560Z,1.92
2023-04-26T14:44:52.779Z,1.83
2023-04-26T14:47:22.693Z,4.22
2023-04-26T14:49:49.764Z,1.60
2023-04-26T14:52:17.320Z,5.20
2023-04-26T14:54:44.538Z,5.88
2023-04-26T14:57:12.079Z,4.50
2023-04-26T14:59:39.131Z,1.55
2023-04-26T15:02:07.396Z,2.92
2023-04-26T15:04:36.807Z,2.90
2023-04-26T15:07:04.550Z,2.08
2023-04-26T15:09:32.541Z,1.50
2023-04-26T15:12:00.017Z,1.50
2023-04-26T15:14:29.035Z,1.00
2023-04-26T15:16:56.782Z,1.13
2023-04-26T15:19:23.946Z,4.72
2023-04-26T15:21:51.424Z,1.65
2023-04-26T15:24:19.489Z,1.75
2023-04-26T15:26:51.083Z,5.32
2023-04-26T15:29:20.131Z,1.80
2023-04-26T15:31:47.843Z,2.63
2023-04-26T15:34:15.172Z,3.42
2023-04-26T15:36:43.085Z,2.58
2023-04-26T15:39:20.156Z,8.02
2023-04-26T15:41:49.910Z,1.60
2023-04-26T15:44:17.788Z,3.65
2023-04-26T15:46:46.195Z,3.35
2023-04-26T15:49:13.432Z,2.25
2023-04-26T15:51:40.929Z,3.65
2023-04-26T15:54:08.195Z,1.77
2023-04-26T15:56:38.107Z,1.98
2023-04-26T15:59:05.155Z,1.25
2023-04-26T16:01:32.863Z,2.38
2023-04-26T16:04:00.152Z,1.48
2023-04-26T16:09:39.398Z,1.90
2023-04-26T16:12:21.506Z,1.48
2023-04-26T16:14:51.412Z,2.83
2023-04-26T16:17:18.515Z,1.23
2023-04-26T16:19:46.182Z,1.60
2023-04-26T16:22:13.230Z,1.90
2023-04-26T16:24:40.707Z,3.38
2023-04-26T16:27:21.497Z,1.58
2023-04-26T16:29:51.958Z,1.95
2023-04-26T16:32:47.715Z,1.77
2023-04-26T16:35:15.878Z,2.25
2023-04-26T16:37:44.854Z,1.40
2023-04-26T16:40:15.482Z,2.15
2023-04-26T16:42:43.661Z,1.15
2023-04-26T16:45:15.463Z,3.35
2023-04-26T16:47:43.562Z,1.08
2023-04-26T16:50:13.900Z,2.15
2023-04-26T16:52:41.031Z,1.35
2023-04-26T16:55:10.553Z,1.67
2023-04-26T16:57:45.471Z,4.47
2023-04-26T17:00:13.813Z,2.50
2023-04-26T17:02:42.175Z,1.65
2023-04-26T17:05:11.833Z,1.30
2023-04-26T17:07:40.764Z,6.50
2023-04-26T17:10:08.754Z,3.88
2023-04-26T17:12:37.206Z,2.78
2023-04-26T17:15:05.618Z,1.48
2023-04-26T17:17:36.938Z,4.75
2023-04-26T17:20:11.322Z,4.70
2023-04-26T17:22:39.145Z,2.40
2023-04-26T17:25:07.338Z,2.78
2023-04-26T17:27:39.717Z,0.70
2023-04-26T17:30:09.290Z,3.88
2023-04-26T17:32:38.724Z,1.25
2023-04-26T17:35:09.562Z,2.88
2023-04-26T17:37:36.893Z,0.77
2023-04-26T17:40:06.928Z,0.80
2023-04-26T17:42:34.488Z,1.58
2023-04-26T17:45:02.081Z,1.25
2023-04-26T17:47:29.260Z,5.32
2023-04-26T17:49:56.930Z,0.82
2023-04-26T17:52:24.064Z,1.17
2023-04-26T17:54:52.471Z,4.93
2023-04-26T17:57:23.957Z,2.33
2023-04-26T17:59:52.179Z,1.42
2023-04-26T18:02:19.982Z,0.88
2023-04-26T18:04:47.855Z,1.10
2023-04-26T18:07:16.982Z,1.05
2023-04-26T18:09:44.674Z,3.42
2023-04-26T18:12:11.733Z,1.40
2023-04-26T18:14:45.052Z,2.60
2023-04-26T18:17:13.367Z,1.00
2023-04-26T18:19:42.409Z,1.48
2023-04-26T18:22:09.942Z,1.30
2023-04-26T18:24:37.761Z,0.98
2023-04-26T18:27:04.877Z,3.17
2023-04-26T18:32:16.008Z,1.50
2023-04-26T18:34:44.289Z,1.65
2023-04-26T18:37:16.312Z,1.85
2023-04-26T18:39:45.446Z,1.55
2023-04-26T18:42:16.356Z,0.80
2023-04-26T18:44:52.454Z,0.80
2023-04-26T18:47:21.373Z,4.15
2023-04-26T18:49:49.343Z,2.55
2023-04-26T18:52:16.567Z,2.10
2023-04-26T18:54:44.204Z,0.82
2023-04-26T18:57:11.679Z,2.38
2023-04-26T18:59:40.257Z,3.03
2023-04-26T19:02:07.942Z,0.80
2023-04-26T19:04:35.955Z,0.88
2023-04-26T19:07:04.681Z,1.60
2023-04-26T19:09:53.681Z,2.80
2023-04-26T19:12:25.492Z,1.60
2023-04-26T19:14:54.365Z,1.25
2023-04-26T19:17:23.006Z,10.70
2023-04-26T19:19:54.876Z,0.85
2023-04-26T19:22:23.220Z,1.10
2023-04-26T19:24:55.853Z,2.17
2023-04-26T19:27:24.749Z,1.40
2023-04-26T19:29:58.050Z,1.45
2023-04-26T19:32:34.711Z,1.15
2023-04-26T19:35:06.218Z,1.58
2023-04-26T19:37:33.468Z,1.08
2023-04-26T19:40:01.067Z,1.27
2023-04-26T19:42:28.484Z,0.95
2023-04-26T19:44:56.130Z,0.60
2023-04-26T19:47:23.578Z,1.77
2023-04-26T19:49:53.096Z,1.98
2023-04-26T19:52:20.283Z,1.33
2023-04-26T19:54:47.850Z,0.60
2023-04-26T19:57:16.861Z,0.73
2023-04-26T19:59:44.320Z,5.30
2023-04-26T20:02:11.761Z,0.80
2023-04-26T20:04:45.498Z,0.80
2023-04-26T20:07:12.710Z,0.40
2023-04-26T20:09:40.168Z,0.90
2023-04-26T20:12:07.485Z,0.80
2023-04-26T20:14:35.259Z,1.02
2023-04-26T20:17:04.044Z,1.02
2023-04-26T20:19:31.530Z,0.80
2023-04-26T20:21:58.648Z,0.63
2023-04-26T20:24:28.274Z,2.35
2023-04-26T20:26:59.696Z,0.90
2023-04-26T20:29:27.055Z,1.08
2023-04-26T20:34:50.211Z,0.93
2023-04-26T20:37:17.660Z,1.67
2023-04-26T20:39:45.371Z,0.75
2023-04-26T20:42:12.474Z,1.25
2023-04-26T20:44:43.568Z,0.90
2023-04-26T20:47:10.705Z,2.63
2023-04-26T20:49:38.192Z,1.67
2023-04-26T20:52:05.430Z,0.38
2023-04-26T20:54:33.005Z,0.98
2023-04-26T20:57:03.366Z,1.30
2023-04-26T20:59:32.101Z,2.63
2023-04-26T21:01:59.927Z,2.38
2023-04-26T21:04:27.866Z,1.35
2023-04-26T21:06:55.252Z,1.98
2023-04-26T21:09:23.992Z,1.63
2023-04-26T21:11:51.374Z,2.13
2023-04-26T21:14:18.914Z,1.13
2023-04-26T21:16:46.593Z,1.08
2023-04-26T21:19:14.296Z,1.55
2023-04-26T21:21:41.994Z,1.30
2023-04-26T21:24:10.224Z,1.55
2023-04-26T21:26:37.310Z,3.22
2023-04-26T21:29:10.256Z,2.97
2023-04-26T21:31:37.490Z,0.82
2023-04-26T21:34:04.895Z,2.47
2023-04-26T21:36:32.574Z,0.82
2023-04-26T21:38:59.939Z,0.95
2023-04-26T21:44:12.500Z,1.55
2023-04-26T21:46:39.983Z,2.03
2023-04-26T21:49:07.795Z,2.63
2023-04-26T21:51:35.141Z,2.25
2023-04-26T21:54:06.266Z,2.80
2023-04-26T21:56:35.992Z,1.70
2023-04-26T21:59:03.430Z,3.55
2023-04-26T22:01:31.210Z,2.25
2023-04-26T22:03:59.392Z,7.65
2023-04-26T22:06:27.379Z,3.55
2023-04-26T22:08:55.365Z,1.80
2023-04-26T22:11:22.470Z,1.50
2023-04-26T22:13:50.044Z,2.65
2023-04-26T22:16:17.159Z,2.55
2023-04-26T22:18:45.220Z,2.42
2023-04-26T22:21:13.402Z,2.28
2023-04-26T22:23:41.055Z,3.40
2023-04-26T22:26:08.280Z,2.00
2023-04-26T22:28:35.826Z,1.40
2023-04-26T22:31:02.893Z,1.90
2023-04-26T22:33:30.572Z,2.13
2023-04-26T22:35:58.184Z,1.83
2023-04-26T22:38:26.005Z,3.55
2023-04-26T22:40:53.126Z,6.50
2023-04-26T22:43:22.776Z,2.92
2023-04-26T22:45:50.164Z,2.35
2023-04-26T22:48:18.375Z,3.65
2023-04-26T22:50:48.660Z,1.70
2023-04-26T22:53:16.867Z,1.58
2023-04-26T22:55:44.112Z,2.28
2023-04-26T22:58:11.609Z,1.80
2023-04-26T23:00:38.892Z,3.08
2023-04-26T23:03:06.472Z,2.00
2023-04-26T23:05:34.594Z,2.50
2023-04-26T23:08:02.984Z,3.40
2023-04-26T23:10:30.152Z,2.13
2023-04-26T23:13:01.487Z,2.50
2023-04-26T23:15:28.611Z,2.20
2023-04-26T23:17:57.025Z,2.15
2023-04-26T23:20:24.245Z,2.70
2023-04-26T23:22:52.404Z,1.75
2023-04-26T23:25:20.768Z,1.58
2023-04-26T23:27:48.182Z,4.22
2023-04-26T23:30:16.084Z,2.50
2023-04-26T23:32:43.546Z,2.50
2023-04-26T23:35:10.664Z,3.33
2023-04-26T23:37:38.896Z,3.83
2023-04-26T23:40:07.472Z,5.00
2023-04-26T23:42:34.843Z,2.05
2023-04-26T23:45:03.099Z,2.97
2023-04-26T23:47:31.009Z,2.35
2023-04-26T23:49:59.421Z,4.93
2023-04-26T23:52:27.730Z,2.05
2023-04-26T23:54:54.851Z,2.08
2023-04-26T23:57:23.010Z,2.60
2023-04-26T23:59:52.754Z,4.57
